sensor_id;sensor_type;location;lat;lon;timestamp;P1;durP1;ratioP1;P2;durP2;ratioP2
78443;SDS011;67739;52.986;8.894;2023-08-24T00:00:47;3.65;;;0.80;;
78443;SDS011;67739;52.986;8.894;2023-08-24T00:03:13;2.88;;;0.63;;
78443;SDS011;67739;52.986;8.894;2023-08-24T00:05:38;3.90;;;0.55;;
78443;SDS011;67739;52.986;8.894;2023-08-24T00:08:05;3.08;;;0.47;;
78443;SDS011;67739;52.986;8.894;2023-08-24T00:10:31;3.53;;;0.70;;
78443;SDS011;67739;52.986;8.894;2023-08-24T00:12:57;4.13;;;0.50;;
78443;SDS011;67739;52.986;8.894;2023-08-24T00:15:22;3.53;;;0.60;;
78443;SDS011;67739;52.986;8.894;2023-08-24T00:17:47;4.15;;;0.60;;
78443;SDS011;67739;52.986;8.894;2023-08-24T00:20:13;2.95;;;0.70;;
78443;SDS011;67739;52.986;8.894;2023-08-24T00:22:38;3.90;;;0.75;;
78443;SDS011;67739;52.986;8.894;2023-08-24T00:25:05;3.08;;;0.80;;
78443;SDS011;67739;52.986;8.894;2023-08-24T00:27:31;2.20;;;0.73;;
78443;SDS011;67739;52.986;8.894;2023-08-24T00:29:57;5.75;;;0.68;;
78443;SDS011;67739;52.986;8.894;2023-08-24T00:32:22;2.25;;;0.40;;
78443;SDS011;67739;52.986;8.894;2023-08-24T00:34:48;2.35;;;0.50;;
78443;SDS011;67739;52.986;8.894;2023-08-24T00:37:13;3.50;;;0.50;;
78443;SDS011;67739;52.986;8.894;2023-08-24T00:39:38;3.42;;;0.70;;
78443;SDS011;67739;52.986;8.894;2023-08-24T00:42:03;3.58;;;0.70;;
78443;SDS011;67739;52.986;8.894;2023-08-24T00:44:30;3.42;;;0.40;;
78443;SDS011;67739;52.986;8.894;2023-08-24T00:46:56;4.13;;;0.52;;
78443;SDS011;67739;52.986;8.894;2023-08-24T00:49:22;3.35;;;0.50;;
78443;SDS011;67739;52.986;8.894;2023-08-24T00:51:48;3.63;;;0.63;;
78443;SDS011;67739;52.986;8.894;2023-08-24T00:54:13;3.58;;;0.30;;
78443;SDS011;67739;52.986;8.894;2023-08-24T00:56:39;3.42;;;0.40;;
78443;SDS011;67739;52.986;8.894;2023-08-24T00:59:05;2.92;;;0.75;;
78443;SDS011;67739;52.986;8.894;2023-08-24T01:01:30;2.58;;;0.32;;
78443;SDS011;67739;52.986;8.894;2023-08-24T01:03:56;3.42;;;0.60;;
78443;SDS011;67739;52.986;8.894;2023-08-24T01:06:21;2.97;;;0.70;;
78443;SDS011;67739;52.986;8.894;2023-08-24T01:08:46;3.95;;;0.63;;
78443;SDS011;67739;52.986;8.894;2023-08-24T01:16:39;4.30;;;0.60;;
78443;SDS011;67739;52.986;8.894;2023-08-24T01:19:13;0.95;;;0.20;;
78443;SDS011;67739;52.986;8.894;2023-08-24T01:21:50;2.40;;;0.60;;
78443;SDS011;67739;52.986;8.894;2023-08-24T01:24:22;2.42;;;0.50;;
78443;SDS011;67739;52.986;8.894;2023-08-24T01:26:56;2.38;;;0.40;;
78443;SDS011;67739;52.986;8.894;2023-08-24T01:29:21;3.08;;;0.60;;
78443;SDS011;67739;52.986;8.894;2023-08-24T01:31:48;2.13;;;0.47;;
78443;SDS011;67739;52.986;8.894;2023-08-24T01:34:14;4.22;;;0.60;;
78443;SDS011;67739;52.986;8.894;2023-08-24T01:36:40;2.10;;;0.40;;
78443;SDS011;67739;52.986;8.894;2023-08-24T01:39:07;2.75;;;1.13;;
78443;SDS011;67739;52.986;8.894;2023-08-24T01:41:39;2.65;;;0.52;;
78443;SDS011;67739;52.986;8.894;2023-08-24T01:44:09;4.85;;;1.45;;
78443;SDS011;67739;52.986;8.894;2023-08-24T01:46:38;5.43;;;1.13;;
78443;SDS011;67739;52.986;8.894;2023-08-24T01:49:05;2.60;;;0.50;;
78443;SDS011;67739;52.986;8.894;2023-08-24T01:51:33;2.30;;;0.52;;
78443;SDS011;67739;52.986;8.894;2023-08-24T01:53:59;3.92;;;0.85;;
78443;SDS011;67739;52.986;8.894;2023-08-24T01:56:25;2.72;;;0.73;;
78443;SDS011;67739;52.986;8.894;2023-08-24T01:58:51;3.33;;;0.90;;
78443;SDS011;67739;52.986;8.894;2023-08-24T02:01:16;4.05;;;1.05;;
78443;SDS011;67739;52.986;8.894;2023-08-24T02:03:41;4.30;;;1.00;;
78443;SDS011;67739;52.986;8.894;2023-08-24T02:06:07;4.03;;;0.88;;
78443;SDS011;67739;52.986;8.894;2023-08-24T02:08:33;5.70;;;0.77;;
78443;SDS011;67739;52.986;8.894;2023-08-24T02:10:58;4.38;;;1.00;;
78443;SDS011;67739;52.986;8.894;2023-08-24T02:13:23;2.90;;;0.50;;
78443;SDS011;67739;52.986;8.894;2023-08-24T02:15:49;2.13;;;0.52;;
78443;SDS011;67739;52.986;8.894;2023-08-24T02:18:14;3.45;;;0.75;;
78443;SDS011;67739;52.986;8.894;2023-08-24T02:20:39;3.13;;;0.70;;
78443;SDS011;67739;52.986;8.894;2023-08-24T02:23:05;4.82;;;0.75;;
78443;SDS011;67739;52.986;8.894;2023-08-24T02:25:30;3.25;;;1.08;;
78443;SDS011;67739;52.986;8.894;2023-08-24T02:27:56;2.50;;;0.60;;
78443;SDS011;67739;52.986;8.894;2023-08-24T02:30:22;5.85;;;0.90;;
78443;SDS011;67739;52.986;8.894;2023-08-24T02:32:47;4.70;;;0.85;;
78443;SDS011;67739;52.986;8.894;2023-08-24T02:35:12;3.78;;;0.52;;
78443;SDS011;67739;52.986;8.894;2023-08-24T02:37:38;3.08;;;0.65;;
78443;SDS011;67739;52.986;8.894;2023-08-24T02:40:04;3.15;;;0.70;;
78443;SDS011;67739;52.986;8.894;2023-08-24T02:42:31;2.88;;;0.68;;
78443;SDS011;67739;52.986;8.894;2023-08-24T02:44:57;3.72;;;0.80;;
78443;SDS011;67739;52.986;8.894;2023-08-24T02:47:23;3.20;;;0.45;;
78443;SDS011;67739;52.986;8.894;2023-08-24T02:49:48;3.28;;;0.40;;
78443;SDS011;67739;52.986;8.894;2023-08-24T02:52:13;4.13;;;0.95;;
78443;SDS011;67739;52.986;8.894;2023-08-24T02:54:39;7.00;;;0.93;;
78443;SDS011;67739;52.986;8.894;2023-08-24T02:57:04;2.50;;;0.57;;
78443;SDS011;67739;52.986;8.894;2023-08-24T02:59:30;5.32;;;1.33;;
78443;SDS011;67739;52.986;8.894;2023-08-24T03:01:55;3.17;;;0.65;;
78443;SDS011;67739;52.986;8.894;2023-08-24T03:04:21;3.47;;;0.82;;
78443;SDS011;67739;52.986;8.894;2023-08-24T03:06:47;1.98;;;0.50;;
78443;SDS011;67739;52.986;8.894;2023-08-24T03:09:12;2.28;;;0.50;;
78443;SDS011;67739;52.986;8.894;2023-08-24T03:11:37;3.97;;;0.75;;
78443;SDS011;67739;52.986;8.894;2023-08-24T03:14:03;3.47;;;0.88;;
78443;SDS011;67739;52.986;8.894;2023-08-24T03:16:29;2.78;;;0.47;;
78443;SDS011;67739;52.986;8.894;2023-08-24T03:18:54;2.38;;;0.52;;
78443;SDS011;67739;52.986;8.894;2023-08-24T03:21:19;6.43;;;1.10;;
78443;SDS011;67739;52.986;8.894;2023-08-24T03:23:45;2.35;;;0.70;;
78443;SDS011;67739;52.986;8.894;2023-08-24T03:26:10;4.80;;;1.05;;
78443;SDS011;67739;52.986;8.894;2023-08-24T03:28:35;3.10;;;0.60;;
78443;SDS011;67739;52.986;8.894;2023-08-24T03:31:01;4.47;;;0.68;;
78443;SDS011;67739;52.986;8.894;2023-08-24T03:33:26;2.25;;;0.57;;
78443;SDS011;67739;52.986;8.894;2023-08-24T03:35:53;2.05;;;0.40;;
78443;SDS011;67739;52.986;8.894;2023-08-24T03:38:18;1.85;;;0.30;;
78443;SDS011;67739;52.986;8.894;2023-08-24T03:40:43;3.13;;;0.47;;
78443;SDS011;67739;52.986;8.894;2023-08-24T03:43:09;7.43;;;1.75;;
78443;SDS011;67739;52.986;8.894;2023-08-24T03:45:34;3.10;;;0.70;;
78443;SDS011;67739;52.986;8.894;2023-08-24T03:47:59;4.57;;;1.23;;
78443;SDS011;67739;52.986;8.894;2023-08-24T03:50:25;2.45;;;0.68;;
78443;SDS011;67739;52.986;8.894;2023-08-24T03:52:51;3.90;;;1.08;;
78443;SDS011;67739;52.986;8.894;2023-08-24T03:55:16;3.83;;;0.80;;
78443;SDS011;67739;52.986;8.894;2023-08-24T03:57:42;4.03;;;0.47;;
78443;SDS011;67739;52.986;8.894;2023-08-24T04:00:07;3.47;;;0.90;;
78443;SDS011;67739;52.986;8.894;2023-08-24T04:02:38;2.58;;;0.70;;
78443;SDS011;67739;52.986;8.894;2023-08-24T04:05:03;2.13;;;0.60;;
78443;SDS011;67739;52.986;8.894;2023-08-24T04:07:29;2.00;;;0.70;;
78443;SDS011;67739;52.986;8.894;2023-08-24T04:09:54;3.15;;;0.75;;
78443;SDS011;67739;52.986;8.894;2023-08-24T04:12:19;7.55;;;0.63;;
78443;SDS011;67739;52.986;8.894;2023-08-24T04:14:45;1.77;;;0.55;;
78443;SDS011;67739;52.986;8.894;2023-08-24T04:17:10;3.17;;;0.63;;
78443;SDS011;67739;52.986;8.894;2023-08-24T04:19:37;5.47;;;0.50;;
78443;SDS011;67739;52.986;8.894;2023-08-24T04:22:02;3.55;;;0.55;;
78443;SDS011;67739;52.986;8.894;2023-08-24T04:24:28;3.33;;;0.63;;
78443;SDS011;67739;52.986;8.894;2023-08-24T04:26:53;3.90;;;0.80;;
78443;SDS011;67739;52.986;8.894;2023-08-24T04:29:19;1.35;;;0.40;;
78443;SDS011;67739;52.986;8.894;2023-08-24T04:31:44;2.22;;;0.60;;
78443;SDS011;67739;52.986;8.894;2023-08-24T04:34:09;6.25;;;0.73;;
78443;SDS011;67739;52.986;8.894;2023-08-24T04:36:36;2.28;;;0.57;;
78443;SDS011;67739;52.986;8.894;2023-08-24T04:39:02;3.67;;;0.43;;
78443;SDS011;67739;52.986;8.894;2023-08-24T04:41:27;3.05;;;0.52;;
78443;SDS011;67739;52.986;8.894;2023-08-24T04:43:52;4.07;;;0.93;;
78443;SDS011;67739;52.986;8.894;2023-08-24T04:46:18;6.10;;;1.17;;
78443;SDS011;67739;52.986;8.894;2023-08-24T04:48:43;3.50;;;0.68;;
78443;SDS011;67739;52.986;8.894;2023-08-24T04:51:08;3.25;;;0.90;;
78443;SDS011;67739;52.986;8.894;2023-08-24T04:53:34;3.33;;;0.68;;
78443;SDS011;67739;52.986;8.894;2023-08-24T04:55:59;3.60;;;1.48;;
78443;SDS011;67739;52.986;8.894;2023-08-24T04:58:24;2.85;;;0.60;;
78443;SDS011;67739;52.986;8.894;2023-08-24T05:00:50;5.20;;;1.00;;
78443;SDS011;67739;52.986;8.894;2023-08-24T05:03:16;2.50;;;0.73;;
78443;SDS011;67739;52.986;8.894;2023-08-24T05:05:41;3.55;;;1.02;;
78443;SDS011;67739;52.986;8.894;2023-08-24T05:08:06;4.18;;;1.15;;
78443;SDS011;67739;52.986;8.894;2023-08-24T05:10:35;4.38;;;0.60;;
78443;SDS011;67739;52.986;8.894;2023-08-24T05:13:00;4.30;;;0.90;;
78443;SDS011;67739;52.986;8.894;2023-08-24T05:15:26;3.90;;;0.90;;
78443;SDS011;67739;52.986;8.894;2023-08-24T05:17:52;3.38;;;0.82;;
78443;SDS011;67739;52.986;8.894;2023-08-24T05:20:20;3.50;;;0.73;;
78443;SDS011;67739;52.986;8.894;2023-08-24T05:22:45;7.32;;;0.70;;
78443;SDS011;67739;52.986;8.894;2023-08-24T05:25:11;2.78;;;1.00;;
78443;SDS011;67739;52.986;8.894;2023-08-24T05:27:37;3.25;;;0.82;;
78443;SDS011;67739;52.986;8.894;2023-08-24T05:30:02;3.55;;;1.13;;
78443;SDS011;67739;52.986;8.894;2023-08-24T05:32:28;4.57;;;0.95;;
78443;SDS011;67739;52.986;8.894;2023-08-24T05:34:54;7.15;;;0.90;;
78443;SDS011;67739;52.986;8.894;2023-08-24T05:37:19;2.35;;;0.60;;
78443;SDS011;67739;52.986;8.894;2023-08-24T05:39:44;4.53;;;0.90;;
78443;SDS011;67739;52.986;8.894;2023-08-24T05:42:10;3.30;;;0.93;;
78443;SDS011;67739;52.986;8.894;2023-08-24T05:44:35;4.85;;;1.17;;
78443;SDS011;67739;52.986;8.894;2023-08-24T05:47:00;4.63;;;0.93;;
78443;SDS011;67739;52.986;8.894;2023-08-24T05:49:26;3.45;;;0.82;;
78443;SDS011;67739;52.986;8.894;2023-08-24T05:51:51;3.33;;;0.75;;
78443;SDS011;67739;52.986;8.894;2023-08-24T05:54:17;5.78;;;0.90;;
78443;SDS011;67739;52.986;8.894;2023-08-24T05:56:43;4.40;;;1.00;;
78443;SDS011;67739;52.986;8.894;2023-08-24T05:59:09;4.85;;;0.98;;
78443;SDS011;67739;52.986;8.894;2023-08-24T06:01:35;4.18;;;1.20;;
78443;SDS011;67739;52.986;8.894;2023-08-24T06:04:03;5.25;;;1.10;;
78443;SDS011;67739;52.986;8.894;2023-08-24T06:06:29;3.90;;;0.85;;
78443;SDS011;67739;52.986;8.894;2023-08-24T06:08:55;5.60;;;1.17;;
78443;SDS011;67739;52.986;8.894;2023-08-24T06:11:20;3.58;;;1.20;;
78443;SDS011;67739;52.986;8.894;2023-08-24T06:13:45;5.78;;;1.40;;
78443;SDS011;67739;52.986;8.894;2023-08-24T06:16:11;4.95;;;1.40;;
78443;SDS011;67739;52.986;8.894;2023-08-24T06:18:36;9.27;;;2.00;;
78443;SDS011;67739;52.986;8.894;2023-08-24T06:21:01;9.20;;;2.45;;
78443;SDS011;67739;52.986;8.894;2023-08-24T06:23:26;6.47;;;1.90;;
78443;SDS011;67739;52.986;8.894;2023-08-24T06:25:52;7.82;;;2.00;;
78443;SDS011;67739;52.986;8.894;2023-08-24T06:28:17;5.35;;;1.38;;
78443;SDS011;67739;52.986;8.894;2023-08-24T06:30:42;10.13;;;1.88;;
78443;SDS011;67739;52.986;8.894;2023-08-24T06:33:08;5.97;;;1.88;;
78443;SDS011;67739;52.986;8.894;2023-08-24T06:35:36;6.45;;;2.33;;
78443;SDS011;67739;52.986;8.894;2023-08-24T06:38:02;6.68;;;1.92;;
78443;SDS011;67739;52.986;8.894;2023-08-24T06:40:28;7.93;;;2.60;;
78443;SDS011;67739;52.986;8.894;2023-08-24T06:42:54;9.13;;;2.10;;
78443;SDS011;67739;52.986;8.894;2023-08-24T06:45:19;9.43;;;2.90;;
78443;SDS011;67739;52.986;8.894;2023-08-24T06:47:44;6.85;;;2.78;;
78443;SDS011;67739;52.986;8.894;2023-08-24T06:50:10;8.70;;;2.15;;
78443;SDS011;67739;52.986;8.894;2023-08-24T06:52:35;6.22;;;2.25;;
78443;SDS011;67739;52.986;8.894;2023-08-24T06:55:01;6.97;;;2.20;;
78443;SDS011;67739;52.986;8.894;2023-08-24T06:57:26;5.72;;;1.65;;
78443;SDS011;67739;52.986;8.894;2023-08-24T06:59:52;6.10;;;2.22;;
78443;SDS011;67739;52.986;8.894;2023-08-24T07:02:17;6.57;;;2.17;;
78443;SDS011;67739;52.986;8.894;2023-08-24T07:04:43;8.63;;;2.33;;
78443;SDS011;67739;52.986;8.894;2023-08-24T07:07:09;8.85;;;2.60;;
78443;SDS011;67739;52.986;8.894;2023-08-24T07:09:34;7.20;;;2.80;;
78443;SDS011;67739;52.986;8.894;2023-08-24T07:12:00;6.43;;;2.00;;
78443;SDS011;67739;52.986;8.894;2023-08-24T07:14:26;7.57;;;2.95;;
78443;SDS011;67739;52.986;8.894;2023-08-24T07:16:52;7.85;;;2.53;;
78443;SDS011;67739;52.986;8.894;2023-08-24T07:19:17;9.05;;;2.83;;
78443;SDS011;67739;52.986;8.894;2023-08-24T07:21:42;6.93;;;2.20;;
78443;SDS011;67739;52.986;8.894;2023-08-24T07:24:08;5.82;;;1.95;;
78443;SDS011;67739;52.986;8.894;2023-08-24T07:26:33;7.15;;;1.88;;
78443;SDS011;67739;52.986;8.894;2023-08-24T07:28:59;6.32;;;2.08;;
78443;SDS011;67739;52.986;8.894;2023-08-24T07:31:24;5.97;;;1.77;;
78443;SDS011;67739;52.986;8.894;2023-08-24T07:33:50;8.48;;;2.63;;
78443;SDS011;67739;52.986;8.894;2023-08-24T07:36:15;10.13;;;2.70;;
78443;SDS011;67739;52.986;8.894;2023-08-24T07:38:40;6.82;;;2.40;;
78443;SDS011;67739;52.986;8.894;2023-08-24T07:41:06;7.00;;;2.10;;
78443;SDS011;67739;52.986;8.894;2023-08-24T07:43:31;10.13;;;2.80;;
78443;SDS011;67739;52.986;8.894;2023-08-24T07:45:57;10.48;;;3.50;;
78443;SDS011;67739;52.986;8.894;2023-08-24T07:48:23;9.55;;;3.28;;
78443;SDS011;67739;52.986;8.894;2023-08-24T07:50:48;10.07;;;2.60;;
78443;SDS011;67739;52.986;8.894;2023-08-24T07:53:17;7.78;;;2.33;;
78443;SDS011;67739;52.986;8.894;2023-08-24T07:55:42;8.20;;;2.92;;
78443;SDS011;67739;52.986;8.894;2023-08-24T07:58:08;7.15;;;2.33;;
78443;SDS011;67739;52.986;8.894;2023-08-24T08:00:33;7.47;;;2.40;;
78443;SDS011;67739;52.986;8.894;2023-08-24T08:02:59;11.00;;;3.80;;
78443;SDS011;67739;52.986;8.894;2023-08-24T08:05:25;7.68;;;2.83;;
78443;SDS011;67739;52.986;8.894;2023-08-24T08:07:50;7.25;;;2.13;;
78443;SDS011;67739;52.986;8.894;2023-08-24T08:10:15;10.07;;;3.00;;
78443;SDS011;67739;52.986;8.894;2023-08-24T08:12:42;10.07;;;2.85;;
78443;SDS011;67739;52.986;8.894;2023-08-24T08:15:08;7.57;;;2.38;;
78443;SDS011;67739;52.986;8.894;2023-08-24T08:17:33;8.60;;;2.65;;
78443;SDS011;67739;52.986;8.894;2023-08-24T08:19:59;7.15;;;2.38;;
78443;SDS011;67739;52.986;8.894;2023-08-24T08:22:24;8.05;;;2.72;;
78443;SDS011;67739;52.986;8.894;2023-08-24T08:24:50;7.80;;;2.97;;
78443;SDS011;67739;52.986;8.894;2023-08-24T08:27:16;7.03;;;2.40;;
78443;SDS011;67739;52.986;8.894;2023-08-24T08:29:41;10.77;;;2.60;;
78443;SDS011;67739;52.986;8.894;2023-08-24T08:32:07;9.68;;;2.05;;
78443;SDS011;67739;52.986;8.894;2023-08-24T08:34:33;11.43;;;3.13;;
78443;SDS011;67739;52.986;8.894;2023-08-24T08:36:58;7.00;;;2.05;;
78443;SDS011;67739;52.986;8.894;2023-08-24T08:39:23;10.82;;;3.03;;
78443;SDS011;67739;52.986;8.894;2023-08-24T08:41:49;7.28;;;2.50;;
78443;SDS011;67739;52.986;8.894;2023-08-24T08:44:14;7.53;;;2.00;;
78443;SDS011;67739;52.986;8.894;2023-08-24T08:46:41;5.43;;;1.65;;
78443;SDS011;67739;52.986;8.894;2023-08-24T08:49:07;7.18;;;2.67;;
78443;SDS011;67739;52.986;8.894;2023-08-24T08:51:35;4.47;;;1.40;;
78443;SDS011;67739;52.986;8.894;2023-08-24T08:54:02;7.50;;;2.10;;
78443;SDS011;67739;52.986;8.894;2023-08-24T08:56:28;5.32;;;1.52;;
78443;SDS011;67739;52.986;8.894;2023-08-24T08:58:55;6.35;;;1.65;;
78443;SDS011;67739;52.986;8.894;2023-08-24T09:01:23;7.15;;;1.77;;
78443;SDS011;67739;52.986;8.894;2023-08-24T09:03:49;6.28;;;1.52;;
78443;SDS011;67739;52.986;8.894;2023-08-24T09:06:15;5.38;;;1.40;;
78443;SDS011;67739;52.986;8.894;2023-08-24T09:08:41;5.90;;;1.20;;
78443;SDS011;67739;52.986;8.894;2023-08-24T09:11:07;5.20;;;1.88;;
78443;SDS011;67739;52.986;8.894;2023-08-24T09:13:33;5.40;;;1.40;;
78443;SDS011;67739;52.986;8.894;2023-08-24T09:16:05;5.68;;;1.15;;
78443;SDS011;67739;52.986;8.894;2023-08-24T09:18:38;4.70;;;1.30;;
78443;SDS011;67739;52.986;8.894;2023-08-24T09:21:11;5.43;;;1.70;;
78443;SDS011;67739;52.986;8.894;2023-08-24T09:23:38;5.88;;;1.80;;
78443;SDS011;67739;52.986;8.894;2023-08-24T09:26:09;4.53;;;1.67;;
78443;SDS011;67739;52.986;8.894;2023-08-24T09:28:35;4.82;;;1.33;;
78443;SDS011;67739;52.986;8.894;2023-08-24T09:31:01;7.13;;;2.05;;
78443;SDS011;67739;52.986;8.894;2023-08-24T09:33:27;6.25;;;1.30;;
78443;SDS011;67739;52.986;8.894;2023-08-24T09:35:54;4.57;;;1.42;;
78443;SDS011;67739;52.986;8.894;2023-08-24T09:38:27;5.50;;;1.98;;
78443;SDS011;67739;52.986;8.894;2023-08-24T09:40:54;4.40;;;1.38;;
78443;SDS011;67739;52.986;8.894;2023-08-24T09:43:20;7.78;;;1.48;;
78443;SDS011;67739;52.986;8.894;2023-08-24T09:45:53;4.93;;;1.50;;
78443;SDS011;67739;52.986;8.894;2023-08-24T09:48:20;6.97;;;1.75;;
78443;SDS011;67739;52.986;8.894;2023-08-24T09:50:47;7.20;;;1.58;;
78443;SDS011;67739;52.986;8.894;2023-08-24T09:53:17;6.50;;;1.52;;
78443;SDS011;67739;52.986;8.894;2023-08-24T09:55:59;5.13;;;1.52;;
78443;SDS011;67739;52.986;8.894;2023-08-24T09:58:26;5.18;;;1.30;;
78443;SDS011;67739;52.986;8.894;2023-08-24T10:00:52;6.75;;;1.67;;
78443;SDS011;67739;52.986;8.894;2023-08-24T10:03:20;6.97;;;1.63;;
78443;SDS011;67739;52.986;8.894;2023-08-24T10:05:53;6.78;;;1.90;;
78443;SDS011;67739;52.986;8.894;2023-08-24T10:08:20;5.28;;;1.67;;
78443;SDS011;67739;52.986;8.894;2023-08-24T10:10:51;6.78;;;2.10;;
78443;SDS011;67739;52.986;8.894;2023-08-24T10:13:20;4.47;;;1.42;;
78443;SDS011;67739;52.986;8.894;2023-08-24T10:15:51;5.22;;;1.27;;
78443;SDS011;67739;52.986;8.894;2023-08-24T10:18:18;5.40;;;1.30;;
78443;SDS011;67739;52.986;8.894;2023-08-24T10:20:45;5.75;;;1.77;;
78443;SDS011;67739;52.986;8.894;2023-08-24T10:23:12;6.38;;;1.48;;
78443;SDS011;67739;52.986;8.894;2023-08-24T10:25:39;4.38;;;1.20;;
78443;SDS011;67739;52.986;8.894;2023-08-24T10:28:07;7.70;;;2.00;;
78443;SDS011;67739;52.986;8.894;2023-08-24T10:30:33;4.78;;;1.45;;
78443;SDS011;67739;52.986;8.894;2023-08-24T10:33:01;4.45;;;1.63;;
78443;SDS011;67739;52.986;8.894;2023-08-24T10:35:26;5.78;;;1.35;;
78443;SDS011;67739;52.986;8.894;2023-08-24T10:37:53;3.63;;;1.40;;
78443;SDS011;67739;52.986;8.894;2023-08-24T10:40:31;4.50;;;1.30;;
78443;SDS011;67739;52.986;8.894;2023-08-24T10:42:57;3.85;;;0.98;;
78443;SDS011;67739;52.986;8.894;2023-08-24T10:45:23;4.80;;;1.40;;
78443;SDS011;67739;52.986;8.894;2023-08-24T10:47:51;4.63;;;1.48;;
78443;SDS011;67739;52.986;8.894;2023-08-24T10:50:18;6.07;;;1.20;;
78443;SDS011;67739;52.986;8.894;2023-08-24T10:52:44;3.15;;;0.82;;
78443;SDS011;67739;52.986;8.894;2023-08-24T10:55:25;2.67;;;0.68;;
78443;SDS011;67739;52.986;8.894;2023-08-24T10:57:59;6.53;;;1.40;;
78443;SDS011;67739;52.986;8.894;2023-08-24T11:00:25;3.42;;;0.90;;
78443;SDS011;67739;52.986;8.894;2023-08-24T11:02:52;3.63;;;1.20;;
78443;SDS011;67739;52.986;8.894;2023-08-24T11:05:25;3.75;;;1.00;;
78443;SDS011;67739;52.986;8.894;2023-08-24T11:08:02;3.40;;;0.90;;
78443;SDS011;67739;52.986;8.894;2023-08-24T11:10:32;2.53;;;0.80;;
78443;SDS011;67739;52.986;8.894;2023-08-24T11:13:14;5.30;;;1.45;;
78443;SDS011;67739;52.986;8.894;2023-08-24T11:18:19;3.65;;;0.88;;
78443;SDS011;67739;52.986;8.894;2023-08-24T11:21:00;3.60;;;0.65;;
78443;SDS011;67739;52.986;8.894;2023-08-24T11:23:27;3.50;;;0.90;;
78443;SDS011;67739;52.986;8.894;2023-08-24T11:25:54;3.95;;;0.80;;
78443;SDS011;67739;52.986;8.894;2023-08-24T11:28:22;3.35;;;0.75;;
78443;SDS011;67739;52.986;8.894;2023-08-24T11:30:57;2.67;;;0.77;;
78443;SDS011;67739;52.986;8.894;2023-08-24T11:33:30;3.17;;;0.55;;
78443;SDS011;67739;52.986;8.894;2023-08-24T11:35:57;3.72;;;1.27;;
78443;SDS011;67739;52.986;8.894;2023-08-24T11:38:24;2.92;;;0.52;;
78443;SDS011;67739;52.986;8.894;2023-08-24T11:40:49;1.35;;;0.38;;
78443;SDS011;67739;52.986;8.894;2023-08-24T11:43:23;2.80;;;0.73;;
78443;SDS011;67739;52.986;8.894;2023-08-24T11:45:53;2.75;;;0.50;;
78443;SDS011;67739;52.986;8.894;2023-08-24T11:48:23;3.53;;;0.60;;
78443;SDS011;67739;52.986;8.894;2023-08-24T11:50:50;1.48;;;0.40;;
78443;SDS011;67739;52.986;8.894;2023-08-24T11:53:16;2.03;;;0.65;;
78443;SDS011;67739;52.986;8.894;2023-08-24T11:55:42;3.05;;;0.70;;
78443;SDS011;67739;52.986;8.894;2023-08-24T11:58:13;1.65;;;0.40;;
78443;SDS011;67739;52.986;8.894;2023-08-24T12:00:39;1.85;;;0.50;;
78443;SDS011;67739;52.986;8.894;2023-08-24T12:03:04;2.35;;;0.60;;
78443;SDS011;67739;52.986;8.894;2023-08-24T12:05:29;2.80;;;0.50;;
78443;SDS011;67739;52.986;8.894;2023-08-24T12:07:55;2.38;;;0.50;;
78443;SDS011;67739;52.986;8.894;2023-08-24T12:10:20;1.65;;;0.35;;
78443;SDS011;67739;52.986;8.894;2023-08-24T12:12:46;2.40;;;0.50;;
78443;SDS011;67739;52.986;8.894;2023-08-24T12:15:15;2.95;;;0.50;;
78443;SDS011;67739;52.986;8.894;2023-08-24T12:17:42;3.05;;;0.60;;
78443;SDS011;67739;52.986;8.894;2023-08-24T12:20:15;2.50;;;0.43;;
78443;SDS011;67739;52.986;8.894;2023-08-24T12:22:42;1.60;;;0.40;;
78443;SDS011;67739;52.986;8.894;2023-08-24T12:25:08;2.63;;;0.60;;
78443;SDS011;67739;52.986;8.894;2023-08-24T12:27:33;2.65;;;0.52;;
78443;SDS011;67739;52.986;8.894;2023-08-24T12:30:02;2.70;;;0.55;;
78443;SDS011;67739;52.986;8.894;2023-08-24T12:32:31;2.28;;;0.60;;
78443;SDS011;67739;52.986;8.894;2023-08-24T12:35:10;2.78;;;0.60;;
78443;SDS011;67739;52.986;8.894;2023-08-24T12:37:36;2.47;;;0.50;;
78443;SDS011;67739;52.986;8.894;2023-08-24T12:40:02;2.45;;;0.50;;
78443;SDS011;67739;52.986;8.894;2023-08-24T12:42:30;2.20;;;0.50;;
78443;SDS011;67739;52.986;8.894;2023-08-24T12:44:56;1.23;;;0.40;;
78443;SDS011;67739;52.986;8.894;2023-08-24T12:47:21;1.60;;;0.43;;
78443;SDS011;67739;52.986;8.894;2023-08-24T12:49:46;2.33;;;0.43;;
78443;SDS011;67739;52.986;8.894;2023-08-24T12:52:12;1.58;;;0.45;;
78443;SDS011;67739;52.986;8.894;2023-08-24T12:54:37;1.70;;;0.65;;
78443;SDS011;67739;52.986;8.894;2023-08-24T12:57:02;2.35;;;0.52;;
78443;SDS011;67739;52.986;8.894;2023-08-24T12:59:28;2.78;;;0.60;;
78443;SDS011;67739;52.986;8.894;2023-08-24T13:01:53;1.90;;;0.45;;
78443;SDS011;67739;52.986;8.894;2023-08-24T13:04:19;2.47;;;0.50;;
78443;SDS011;67739;52.986;8.894;2023-08-24T13:06:44;1.17;;;0.43;;
78443;SDS011;67739;52.986;8.894;2023-08-24T13:09:09;2.33;;;0.60;;
78443;SDS011;67739;52.986;8.894;2023-08-24T13:11:36;1.95;;;0.55;;
78443;SDS011;67739;52.986;8.894;2023-08-24T13:14:02;2.13;;;0.68;;
78443;SDS011;67739;52.986;8.894;2023-08-24T13:16:27;1.95;;;0.50;;
78443;SDS011;67739;52.986;8.894;2023-08-24T13:18:53;1.75;;;0.50;;
78443;SDS011;67739;52.986;8.894;2023-08-24T13:21:19;1.77;;;0.50;;
78443;SDS011;67739;52.986;8.894;2023-08-24T13:23:45;1.63;;;0.40;;
78443;SDS011;67739;52.986;8.894;2023-08-24T13:26:20;2.65;;;0.90;;
78443;SDS011;67739;52.986;8.894;2023-08-24T13:31:13;1.73;;;0.50;;
78443;SDS011;67739;52.986;8.894;2023-08-24T13:33:39;1.63;;;0.40;;
78443;SDS011;67739;52.986;8.894;2023-08-24T13:36:04;1.50;;;0.40;;
78443;SDS011;67739;52.986;8.894;2023-08-24T13:38:30;2.10;;;0.50;;
78443;SDS011;67739;52.986;8.894;2023-08-24T13:40:55;2.00;;;0.45;;
78443;SDS011;67739;52.986;8.894;2023-08-24T13:43:21;1.73;;;0.52;;
78443;SDS011;67739;52.986;8.894;2023-08-24T13:45:46;2.65;;;0.50;;
78443;SDS011;67739;52.986;8.894;2023-08-24T13:48:11;1.50;;;0.43;;
78443;SDS011;67739;52.986;8.894;2023-08-24T13:50:37;2.58;;;0.70;;
78443;SDS011;67739;52.986;8.894;2023-08-24T13:53:02;2.10;;;0.68;;
78443;SDS011;67739;52.986;8.894;2023-08-24T13:55:27;1.70;;;0.50;;
78443;SDS011;67739;52.986;8.894;2023-08-24T13:57:55;2.88;;;0.50;;
78443;SDS011;67739;52.986;8.894;2023-08-24T14:00:20;1.73;;;0.40;;
78443;SDS011;67739;52.986;8.894;2023-08-24T14:02:48;2.15;;;0.60;;
78443;SDS011;67739;52.986;8.894;2023-08-24T14:05:13;1.88;;;0.50;;
78443;SDS011;67739;52.986;8.894;2023-08-24T14:07:39;2.15;;;0.60;;
78443;SDS011;67739;52.986;8.894;2023-08-24T14:10:04;1.35;;;0.32;;
78443;SDS011;67739;52.986;8.894;2023-08-24T14:12:31;1.88;;;0.45;;
78443;SDS011;67739;52.986;8.894;2023-08-24T14:14:57;2.17;;;0.50;;
78443;SDS011;67739;52.986;8.894;2023-08-24T14:17:22;2.45;;;0.57;;
78443;SDS011;67739;52.986;8.894;2023-08-24T14:19:47;1.60;;;0.63;;
78443;SDS011;67739;52.986;8.894;2023-08-24T14:22:13;2.03;;;0.50;;
78443;SDS011;67739;52.986;8.894;2023-08-24T14:24:38;1.65;;;0.60;;
78443;SDS011;67739;52.986;8.894;2023-08-24T14:27:03;2.17;;;0.50;;
78443;SDS011;67739;52.986;8.894;2023-08-24T14:29:29;3.05;;;0.52;;
78443;SDS011;67739;52.986;8.894;2023-08-24T14:31:54;1.92;;;0.43;;
78443;SDS011;67739;52.986;8.894;2023-08-24T14:34:19;1.85;;;0.50;;
78443;SDS011;67739;52.986;8.894;2023-08-24T14:36:45;1.90;;;0.45;;
78443;SDS011;67739;52.986;8.894;2023-08-24T14:39:10;2.53;;;0.52;;
78443;SDS011;67739;52.986;8.894;2023-08-24T14:41:35;1.95;;;0.40;;
78443;SDS011;67739;52.986;8.894;2023-08-24T14:44:01;1.70;;;0.30;;
78443;SDS011;67739;52.986;8.894;2023-08-24T14:46:26;1.98;;;0.45;;
78443;SDS011;67739;52.986;8.894;2023-08-24T14:48:51;1.95;;;0.40;;
78443;SDS011;67739;52.986;8.894;2023-08-24T14:51:17;3.00;;;0.63;;
78443;SDS011;67739;52.986;8.894;2023-08-24T14:53:42;2.47;;;0.50;;